Aérodrome :
LOGIN :

S'inscrire | Disclaimer

   EN    FR    IT 

 










Légende :    VFR   VFR Marginal   IFR   IFR Intensif   IFR Très Intensif
Visi : 
Plafond : 
>= 8 km
>= 3000ft
5 à 8 km
1000 à 3000 ft
1500m à 5 km
500 à 1000 ft
800 à 1500m
200 à 500 ft
< 800m
< 200 ft
Symboles :   Orages  Brouillard  Fortes neiges  Fortes précipitations  Vent > 20 kt
SIGMETs :   Divers  Orages  Givrage  Turbulence  Onde Orograph.  Cendres Volcan.






- Altitude de l'aérodrome : 580 ft


LFOA - Avord

DERNIER METAR :
  • 200700Z AUTO 30003KT 1100 1000 R24/1000D -DZ BR VV/// 04/04 Q1030 BECMG 03010KT 9999 NSW BKN010

METARs EXPIRÉS :
  • 200630Z AUTO 29003KT 270V330 0750 0700 R24/0900U FG VV/// 04/04 Q1029 BECMG 03010KT 9999 NSW BKN010
  • 200600Z AUTO 30006KT 0800 0750 R24/0800N FG VV/// 04/04 Q1030 BECMG 03010KT 4500 BR BKN010
  • 200530Z AUTO 30005KT 1100 1000 R24/1100D BR VV/// 04/04 Q1030
  • 200500Z AUTO 29007KT 1500 1400 R24/1400D DZ BR OVC002 04/04 Q1029
  • 200430Z AUTO 28007KT 2100 BR OVC002 04/04 Q1029

TAF AMD TAF LFOA
Valide du 20 à 06h jusqu'au 21 à 03h UTC


200657Z 2006/2103 29008KT 0800 FG OVC002 TX06/2014Z TN01/2007Z
BECMG 2006/2008 4000 BR BKN005
BECMG 2008/2010 03010KT 9999 NSW BKN010
BECMG 2012/2014 BKN015
TEMPO 2023/2103 BKN006



MET'MAP, la Météo Aéronautique d'un coup d'oeil ! - Copyright ORBIFLY Décembre 2007 - Disclaimer

ORBIFLY MET'MAP TEAM :

Programmation & Développement : Alexandra Zaïnal
Sur une idée originale de : Baudouin d'Aumeries
Assistance à la programmation : Marc-Olivier Méhu
Soutien technique & logistique : Manuel Goepfert

Contact : metmap@orbifly.com




SOURCES & CREDITS :

   NOAA